Time;durP1;ratioP1;P1;durP2;ratioP2;P2;SDS_P1;SDS_P2;PMS_P1;PMS_P2;Temp;Humidity;BMP_temperature;BMP_pressure;BME280_temperature;BME280_humidity;BME280_pressure;Samples;Min_cycle;Max_cycle;Signal;HPM_P1;HPM_P2
2022/11/09 00:00:06;;;;;;;7.95;3.58;;;12.40;99.90;;;;;;4955698;28;20406;-72
2022/11/09 00:02:31;;;;;;;8.85;3.88;;;12.10;99.90;;;;;;4972850;28;20039;-72
2022/11/09 00:04:57;;;;;;;11.20;4.22;;;12.20;99.90;;;;;;4972940;28;20085;-72
2022/11/09 00:07:22;;;;;;;5.68;3.33;;;12.30;99.90;;;;;;4972876;28;20117;-72
2022/11/09 00:09:48;;;;;;;11.60;4.03;;;12.40;99.90;;;;;;4972803;28;20054;-72
2022/11/09 00:12:13;;;;;;;7.00;3.38;;;12.20;99.90;;;;;;4955251;28;20551;-72
2022/11/09 00:14:39;;;;;;;5.07;2.92;;;12.30;99.90;;;;;;4955168;28;20401;-72
2022/11/09 00:17:04;;;;;;;5.93;3.00;;;12.30;99.90;;;;;;4973196;28;20129;-72
2022/11/09 00:19:30;;;;;;;6.93;3.40;;;12.10;99.90;;;;;;4959179;28;20086;-72
2022/11/09 00:21:56;;;;;;;4.78;2.80;;;12.40;99.90;;;;;;4976400;28;20122;-72
2022/11/09 00:24:21;;;;;;;7.25;3.20;;;12.20;99.90;;;;;;4959143;28;20038;-73
2022/11/09 00:26:47;;;;;;;6.57;3.15;;;12.20;99.90;;;;;;4976539;28;20042;-72
2022/11/09 00:29:12;;;;;;;6.28;2.78;;;12.30;99.90;;;;;;4959285;28;20046;-72
2022/11/09 00:31:38;;;;;;;7.55;2.53;;;12.30;99.90;;;;;;4976326;28;20520;-72
2022/11/09 00:34:03;;;;;;;5.25;2.25;;;12.30;99.90;;;;;;4958729;28;20047;-72
2022/11/09 00:36:29;;;;;;;6.07;2.55;;;12.20;99.90;;;;;;4959187;28;20133;-72
2022/11/09 00:38:57;;;;;;;5.72;2.28;;;12.30;99.90;;;;;;4958831;28;20039;-72
2022/11/09 00:41:24;;;;;;;3.72;2.30;;;12.10;99.90;;;;;;4958681;28;20047;-72
2022/11/09 00:43:50;;;;;;;6.47;2.05;;;12.10;99.90;;;;;;4975869;28;20105;-72
2022/11/09 00:46:16;;;;;;;7.35;2.10;;;12.30;99.90;;;;;;4958735;28;20050;-72
2022/11/09 00:48:41;;;;;;;3.70;1.70;;;12.00;99.90;;;;;;4958735;28;20045;-72
2022/11/09 00:51:08;;;;;;;4.13;1.92;;;12.20;99.90;;;;;;4976075;28;20077;-72
2022/11/09 00:53:34;;;;;;;4.78;2.00;;;12.20;99.90;;;;;;4958291;28;20051;-72
2022/11/09 00:56:07;;;;;;;4.45;2.10;;;12.10;99.90;;;;;;4958612;28;20125;-72
2022/11/09 00:58:34;;;;;;;5.20;2.30;;;12.20;99.90;;;;;;4975872;28;20042;-72
2022/11/09 01:01:05;;;;;;;5.40;2.20;;;11.90;99.90;;;;;;4958438;28;20039;-72
2022/11/09 01:03:31;;;;;;;6.28;2.50;;;12.10;99.90;;;;;;4969772;28;20496;-72
2022/11/09 01:05:58;;;;;;;5.68;2.28;;;11.90;99.90;;;;;;4995243;28;20050;-72
2022/11/09 01:08:24;;;;;;;5.60;2.30;;;12.10;99.90;;;;;;4995227;28;20034;-72
2022/11/09 01:10:50;;;;;;;5.95;2.35;;;12.10;99.90;;;;;;4989956;28;20117;-72
2022/11/09 01:13:17;;;;;;;6.18;2.13;;;12.00;99.90;;;;;;4986086;28;20393;-72
2022/11/09 01:15:47;;;;;;;6.90;2.63;;;11.80;99.90;;;;;;4977896;28;20112;-72
2022/11/09 01:18:14;;;;;;;4.68;2.40;;;12.00;99.90;;;;;;4977836;28;20050;-72
2022/11/09 01:20:43;;;;;;;8.30;2.70;;;12.00;99.90;;;;;;4995224;28;20092;-72
2022/11/09 01:23:10;;;;;;;7.88;3.13;;;12.00;99.90;;;;;;4977386;28;20130;-72
2022/11/09 01:25:36;;;;;;;8.93;3.15;;;11.80;99.90;;;;;;4994728;28;20040;-72
2022/11/09 01:28:03;;;;;;;8.52;3.40;;;11.80;99.90;;;;;;4994988;28;20118;-72
2022/11/09 01:30:29;;;;;;;7.97;2.85;;;11.80;99.90;;;;;;4993916;28;20109;-72
2022/11/09 01:32:55;;;;;;;4.78;2.08;;;12.00;99.90;;;;;;4994608;28;20400;-72
2022/11/09 01:35:20;;;;;;;9.05;3.40;;;11.80;99.90;;;;;;4994701;28;20174;-73
2022/11/09 01:37:46;;;;;;;5.57;2.35;;;12.00;99.90;;;;;;4994731;28;20042;-72
2022/11/09 01:40:12;;;;;;;4.60;2.35;;;11.80;99.90;;;;;;4976976;28;20046;-72
2022/11/09 01:42:38;;;;;;;4.53;2.33;;;12.00;99.90;;;;;;4994147;28;20045;-72
2022/11/09 01:45:21;;;;;;;6.60;2.42;;;11.80;99.90;;;;;;4994668;28;20042;-72
2022/11/09 01:47:51;;;;;;;9.32;3.00;;;11.80;99.90;;;;;;4977274;28;20492;-72
2022/11/09 01:50:26;;;;;;;6.35;2.70;;;12.00;99.90;;;;;;4976861;28;20042;-72
2022/11/09 01:52:51;;;;;;;8.75;2.58;;;11.90;99.90;;;;;;4994017;28;20559;-72
2022/11/09 01:55:22;;;;;;;7.30;3.05;;;11.70;99.90;;;;;;4976899;28;20125;-72
2022/11/09 01:57:56;;;;;;;6.97;3.10;;;11.90;99.90;;;;;;4977149;28;20372;-72
2022/11/09 02:00:22;;;;;;;9.90;2.55;;;11.90;99.90;;;;;;4994225;28;20047;-72
2022/11/09 02:02:57;;;;;;;12.10;3.00;;;11.70;99.90;;;;;;4976382;28;20039;-72
2022/11/09 02:05:25;;;;;;;8.82;3.00;;;11.90;99.90;;;;;;4976590;28;20049;-73
2022/11/09 02:07:51;;;;;;;8.02;2.63;;;12.00;99.90;;;;;;4973680;28;20523;-72
2022/11/09 02:10:47;;;;;;;8.18;3.25;;;11.80;99.90;;;;;;4985622;28;20038;-72
2022/11/09 02:13:16;;;;;;;6.13;2.53;;;11.80;99.90;;;;;;4993780;28;20048;-72
2022/11/09 02:15:42;;;;;;;8.93;3.13;;;12.10;99.90;;;;;;4976358;28;20054;-72
2022/11/09 02:18:07;;;;;;;7.30;2.50;;;11.80;99.90;;;;;;4976427;28;20046;-72
2022/11/09 02:20:47;;;;;;;5.75;2.53;;;12.10;99.90;;;;;;4993625;28;20493;-72
2022/11/09 02:23:13;;;;;;;10.80;2.85;;;11.80;99.90;;;;;;4976298;28;20045;-72
2022/11/09 02:25:39;;;;;;;8.05;2.90;;;12.00;99.90;;;;;;4993712;28;20121;-73
2022/11/09 02:28:05;;;;;;;8.55;2.95;;;11.90;99.90;;;;;;4976036;28;20148;-72
2022/11/09 02:30:33;;;;;;;7.32;2.80;;;12.00;99.90;;;;;;4976156;28;20050;-72
2022/11/09 02:32:58;;;;;;;5.93;2.92;;;11.80;99.90;;;;;;4976420;28;20042;-72
2022/11/09 02:35:24;;;;;;;5.18;2.50;;;11.70;99.90;;;;;;4977200;28;20068;-72
2022/11/09 02:37:49;;;;;;;6.72;2.35;;;11.80;99.90;;;;;;4976210;28;20085;-72
2022/11/09 02:40:21;;;;;;;8.93;2.50;;;11.80;99.90;;;;;;4976088;28;20469;-72
2022/11/09 02:42:46;;;;;;;6.07;2.45;;;11.70;99.90;;;;;;4975545;28;20039;-73
2022/11/09 02:45:12;;;;;;;7.22;2.70;;;11.80;99.90;;;;;;4993380;28;20103;-72
2022/11/09 02:47:38;;;;;;;7.47;4.68;;;11.70;99.90;;;;;;5008619;28;20035;-73
2022/11/09 02:50:04;;;;;;;8.55;2.80;;;11.70;99.90;;;;;;4976057;28;20057;-72
2022/11/09 02:52:29;;;;;;;8.15;2.58;;;11.70;99.90;;;;;;4975403;28;20042;-73
2022/11/09 02:54:55;;;;;;;7.15;2.55;;;11.50;99.90;;;;;;4993201;28;20120;-72
2022/11/09 02:57:20;;;;;;;5.50;2.70;;;11.70;99.90;;;;;;4993091;28;20096;-73
2022/11/09 02:59:46;;;;;;;10.07;2.47;;;11.70;99.90;;;;;;4975608;28;20533;-72
2022/11/09 03:02:11;;;;;;;4.97;2.50;;;11.70;99.90;;;;;;4975691;28;20050;-72
2022/11/09 03:04:37;;;;;;;9.77;3.08;;;11.60;99.90;;;;;;4992659;28;20037;-72
2022/11/09 03:07:02;;;;;;;9.50;2.90;;;11.70;99.90;;;;;;4992988;28;20060;-73
2022/11/09 03:09:28;;;;;;;9.27;3.25;;;11.50;99.90;;;;;;4992947;28;20424;-73
2022/11/09 03:11:53;;;;;;;7.20;2.78;;;11.70;99.90;;;;;;4975286;28;20093;-72
2022/11/09 03:14:19;;;;;;;11.07;2.70;;;11.70;99.90;;;;;;4975405;28;20046;-72
2022/11/09 03:16:44;;;;;;;9.05;3.15;;;11.40;99.90;;;;;;4975394;28;20061;-72
2022/11/09 03:19:10;;;;;;;8.85;2.83;;;11.40;99.90;;;;;;4992648;28;20042;-73
2022/11/09 03:21:36;;;;;;;5.68;2.90;;;11.40;99.90;;;;;;4975092;28;20053;-72
2022/11/09 03:24:01;;;;;;;7.20;2.78;;;11.70;99.90;;;;;;5007539;28;20589;-72
2022/11/09 03:26:27;;;;;;;11.20;3.15;;;11.50;99.90;;;;;;4992567;28;20039;-73
2022/11/09 03:28:52;;;;;;;12.38;2.80;;;11.70;99.90;;;;;;4992880;28;20038;-72
2022/11/09 03:31:18;;;;;;;11.40;2.78;;;11.40;99.90;;;;;;4992671;28;20034;-73
2022/11/09 03:33:43;;;;;;;13.57;3.85;;;11.60;99.90;;;;;;4974781;28;20042;-73
2022/11/09 03:36:09;;;;;;;12.82;2.80;;;11.40;99.90;;;;;;4975014;28;20057;-72
2022/11/09 03:38:35;;;;;;;10.48;2.72;;;11.50;99.90;;;;;;4992520;28;20053;-72
2022/11/09 03:41:01;;;;;;;12.75;3.10;;;11.50;99.90;;;;;;4990990;28;20052;-72
2022/11/09 03:43:30;;;;;;;9.13;2.45;;;11.50;99.90;;;;;;4991307;28;20038;-71
2022/11/09 03:45:55;;;;;;;10.60;2.38;;;11.60;99.90;;;;;;4992479;28;20046;-71
2022/11/09 03:48:21;;;;;;;9.25;3.00;;;11.60;99.90;;;;;;4975034;28;20039;-71
2022/11/09 03:50:47;;;;;;;10.60;2.67;;;11.70;99.90;;;;;;4974733;28;20089;-71
2022/11/09 03:53:13;;;;;;;12.07;2.60;;;11.50;99.90;;;;;;4991643;28;20092;-71
2022/11/09 03:55:39;;;;;;;8.20;2.60;;;11.50;99.90;;;;;;4992788;28;20045;-71
2022/11/09 03:58:05;;;;;;;11.68;2.97;;;11.70;99.90;;;;;;4975353;28;20496;-71
2022/11/09 04:00:32;;;;;;;6.45;2.20;;;11.50;99.90;;;;;;4992347;28;20034;-71
2022/11/09 04:02:58;;;;;;;9.13;2.50;;;11.70;99.90;;;;;;4974483;28;20042;-71
2022/11/09 04:05:24;;;;;;;14.80;2.78;;;11.70;99.90;;;;;;4974822;28;20050;-71
2022/11/09 04:07:54;;;;;;;11.60;2.53;;;11.50;99.90;;;;;;4992175;28;20042;-71
2022/11/09 04:10:21;;;;;;;12.27;2.40;;;11.60;99.90;;;;;;4958650;28;20046;-71
2022/11/09 04:12:46;;;;;;;9.38;3.75;;;11.60;99.90;;;;;;4991942;28;20050;-70
2022/11/09 04:15:12;;;;;;;6.85;2.97;;;11.50;99.90;;;;;;4992121;28;20176;-71
2022/11/09 04:17:38;;;;;;;13.18;2.70;;;11.60;99.90;;;;;;4974661;28;20035;-71
2022/11/09 04:20:06;;;;;;;8.73;3.10;;;11.40;99.90;;;;;;4992089;28;20436;-71
2022/11/09 04:22:31;;;;;;;8.65;2.40;;;11.40;99.90;;;;;;4974452;28;20408;-71
2022/11/09 04:24:57;;;;;;;8.60;2.13;;;11.30;99.90;;;;;;4974575;28;20126;-72
2022/11/09 04:27:23;;;;;;;7.18;2.25;;;11.40;99.90;;;;;;4974697;28;20049;-72
2022/11/09 04:29:48;;;;;;;6.85;2.95;;;11.50;99.90;;;;;;4958836;28;20045;-72
2022/11/09 04:32:14;;;;;;;9.80;3.03;;;11.30;99.90;;;;;;4991887;28;20523;-71
2022/11/09 04:34:40;;;;;;;12.15;2.75;;;11.40;99.90;;;;;;4974366;28;20074;-71
2022/11/09 04:37:06;;;;;;;11.57;2.60;;;11.50;99.90;;;;;;4991954;28;20046;-71
2022/11/09 04:39:32;;;;;;;5.90;2.00;;;11.50;99.90;;;;;;4974645;28;20054;-71
2022/11/09 04:41:57;;;;;;;10.00;3.08;;;11.50;99.90;;;;;;4974251;28;20035;-72
2022/11/09 04:44:23;;;;;;;9.15;3.35;;;11.50;99.90;;;;;;4974451;28;20475;-71
2022/11/09 04:46:48;;;;;;;7.28;2.22;;;11.30;99.90;;;;;;4974615;28;20081;-71
2022/11/09 04:49:14;;;;;;;10.35;2.78;;;11.50;99.90;;;;;;4974413;28;20041;-70
2022/11/09 04:51:39;;;;;;;6.50;2.65;;;11.50;99.90;;;;;;4991742;28;20046;-72
2022/11/09 04:54:05;;;;;;;9.02;2.90;;;11.50;99.90;;;;;;4974039;28;20057;-72
2022/11/09 04:56:31;;;;;;;8.98;3.45;;;11.50;99.90;;;;;;4991968;28;20035;-72
2022/11/09 04:58:56;;;;;;;9.95;2.80;;;11.30;99.90;;;;;;4991895;28;20042;-71
2022/11/09 05:01:22;;;;;;;18.50;3.45;;;11.50;99.90;;;;;;4991622;28;20046;-72
2022/11/09 05:03:48;;;;;;;6.38;2.25;;;11.50;99.90;;;;;;4990263;28;20034;-71
2022/11/09 05:06:31;;;;;;;7.30;2.67;;;11.40;99.90;;;;;;4995186;28;20117;-71
2022/11/09 05:08:58;;;;;;;;;;;11.60;99.90;;;;;;4978168;28;20508;-72
2022/11/09 05:11:23;;;;;;;7.13;2.28;;;11.40;99.90;;;;;;4995221;28;19922;-72
2022/11/09 05:13:50;;;;;;;6.00;2.83;;;11.60;99.90;;;;;;4977579;28;20126;-72
2022/11/09 05:16:19;;;;;;;9.38;2.63;;;11.60;99.90;;;;;;4977650;28;20052;-71
2022/11/09 05:18:45;;;;;;;12.57;3.05;;;11.60;99.90;;;;;;4995090;28;20038;-71
2022/11/09 05:21:11;;;;;;;11.43;3.40;;;11.50;99.90;;;;;;4977333;28;20050;-72
2022/11/09 05:26:20;;;;;;;7.47;2.67;;;11.60;99.90;;;;;;4995055;28;20128;-72
2022/11/09 05:28:46;;;;;;;8.55;2.40;;;11.70;99.90;;;;;;4993844;28;20065;-72
2022/11/09 05:31:11;;;;;;;10.13;2.88;;;11.50;99.90;;;;;;4977218;28;20536;-72
2022/11/09 05:33:37;;;;;;;12.88;2.95;;;11.50;99.90;;;;;;4994375;28;20034;-72
2022/11/09 05:36:03;;;;;;;13.15;3.17;;;11.70;99.90;;;;;;4994860;28;20038;-71
2022/11/09 05:38:28;;;;;;;10.85;2.70;;;11.60;99.90;;;;;;4994783;28;20252;-71
2022/11/09 05:40:54;;;;;;;14.25;2.80;;;11.80;99.90;;;;;;4994545;28;20093;-72
2022/11/09 05:43:20;;;;;;;6.10;2.25;;;11.60;99.90;;;;;;4993041;28;20042;-72
2022/11/09 05:45:46;;;;;;;11.30;2.70;;;11.80;99.90;;;;;;4976989;28;20038;-71
2022/11/09 05:48:14;;;;;;;9.20;2.55;;;11.60;99.90;;;;;;4994372;28;20042;-72
2022/11/09 05:50:41;;;;;;;12.57;2.80;;;11.60;99.90;;;;;;4977117;28;20056;-71
2022/11/09 05:53:07;;;;;;;12.85;3.08;;;11.70;99.90;;;;;;4994098;28;20567;-72
2022/11/09 05:55:33;;;;;;;11.55;3.03;;;11.70;99.90;;;;;;4976891;28;20049;-71
2022/11/09 05:57:58;;;;;;;8.95;2.75;;;11.80;99.90;;;;;;4994326;28;20038;-72
2022/11/09 06:00:24;;;;;;;9.38;2.63;;;11.80;99.90;;;;;;4994095;28;20045;-71
2022/11/09 06:02:49;;;;;;;13.73;3.25;;;11.50;99.90;;;;;;4976329;28;20046;-71
2022/11/09 06:05:15;;;;;;;9.98;2.67;;;11.60;99.90;;;;;;4960575;28;20135;-72
2022/11/09 06:07:41;;;;;;;7.72;2.60;;;11.60;99.90;;;;;;4976780;28;20031;-72
2022/11/09 06:10:08;;;;;;;13.80;3.47;;;11.80;99.90;;;;;;4976818;28;20046;-72
2022/11/09 06:12:33;;;;;;;14.27;3.08;;;11.60;99.90;;;;;;4993659;28;20053;-72
2022/11/09 06:14:59;;;;;;;8.45;2.97;;;11.50;99.90;;;;;;4993463;28;20046;-71
2022/11/09 06:17:24;;;;;;;12.25;2.50;;;11.50;99.90;;;;;;4976343;28;20042;-72
2022/11/09 06:19:50;;;;;;;11.32;3.10;;;11.80;99.90;;;;;;4976516;28;20069;-72
2022/11/09 06:22:16;;;;;;;11.27;2.53;;;11.50;99.90;;;;;;4976244;28;20511;-71
2022/11/09 06:24:41;;;;;;;8.32;2.33;;;11.50;99.90;;;;;;4993607;28;20519;-71
2022/11/09 06:27:07;;;;;;;8.60;2.90;;;11.60;99.90;;;;;;4976353;28;20054;-72
2022/11/09 06:29:33;;;;;;;4.50;2.20;;;11.70;99.90;;;;;;4993710;28;20050;-72
2022/11/09 06:31:58;;;;;;;9.77;2.42;;;11.40;99.90;;;;;;4993483;28;20519;-71
2022/11/09 06:34:24;;;;;;;10.50;2.67;;;11.50;99.90;;;;;;4992346;28;20046;-72
2022/11/09 06:36:49;;;;;;;7.57;2.22;;;11.40;99.90;;;;;;4993773;28;20046;-72
2022/11/09 06:39:15;;;;;;;8.55;2.75;;;11.60;99.90;;;;;;4976181;28;20121;-71
2022/11/09 06:41:40;;;;;;;7.03;3.45;;;11.40;99.90;;;;;;5008294;28;20492;-72
2022/11/09 06:44:06;;;;;;;10.00;2.70;;;11.40;99.90;;;;;;5008394;28;20089;-71
2022/11/09 06:46:33;;;;;;;10.68;2.72;;;11.50;99.90;;;;;;4976073;28;20077;-72
2022/11/09 06:48:59;;;;;;;8.00;2.67;;;11.40;99.90;;;;;;4993463;28;20480;-71
2022/11/09 06:51:24;;;;;;;10.45;2.97;;;11.60;99.90;;;;;;4975677;28;20038;-72
2022/11/09 06:53:50;;;;;;;11.85;2.85;;;11.40;99.90;;;;;;4992968;28;20061;-71
2022/11/09 06:56:16;;;;;;;8.57;2.83;;;11.40;99.90;;;;;;4975558;28;20042;-72
2022/11/09 06:58:41;;;;;;;6.70;2.20;;;11.30;99.90;;;;;;4992991;28;20065;-72
2022/11/09 07:01:12;;;;;;;9.25;2.22;;;11.40;99.90;;;;;;4975310;28;20050;-72
2022/11/09 07:03:38;;;;;;;6.35;2.08;;;11.60;99.90;;;;;;4975308;28;20034;-71
2022/11/09 07:06:09;;;;;;;11.50;2.05;;;11.50;99.90;;;;;;4975552;28;20053;-72
2022/11/09 07:08:34;;;;;;;11.82;2.60;;;11.30;99.90;;;;;;4975455;28;20038;-72
2022/11/09 07:11:09;;;;;;;9.85;2.60;;;11.50;99.90;;;;;;4975383;28;20097;-72
2022/11/09 07:13:35;;;;;;;10.73;2.30;;;11.30;99.90;;;;;;4992532;28;20378;-71
2022/11/09 07:16:01;;;;;;;12.60;3.03;;;11.40;99.90;;;;;;4993036;28;20178;-72
2022/11/09 07:18:26;;;;;;;11.65;2.65;;;11.40;99.90;;;;;;4992972;28;20586;-71
2022/11/09 07:20:52;;;;;;;6.70;2.05;;;11.60;99.90;;;;;;4975265;28;20082;-72
2022/11/09 07:23:17;;;;;;;10.85;2.75;;;11.40;99.90;;;;;;4992464;28;20113;-72
2022/11/09 07:25:43;;;;;;;9.63;1.88;;;11.60;99.90;;;;;;4992647;28;20038;-72
2022/11/09 07:28:11;;;;;;;9.73;2.22;;;11.50;99.90;;;;;;4991839;28;20042;-72
2022/11/09 07:30:37;;;;;;;14.68;2.72;;;11.50;99.90;;;;;;4992736;28;20042;-72
2022/11/09 07:33:10;;;;;;;9.05;2.45;;;11.50;99.90;;;;;;4992493;28;20105;-72
2022/11/09 07:35:37;;;;;;;13.25;2.95;;;11.80;99.90;;;;;;4975146;28;20121;-72
2022/11/09 07:38:03;;;;;;;10.35;2.90;;;11.90;99.90;;;;;;4992546;28;20038;-72
2022/11/09 07:40:28;;;;;;;11.27;1.95;;;11.80;99.90;;;;;;4992303;28;20519;-72
2022/11/09 07:43:00;;;;;;;10.40;2.38;;;11.90;99.90;;;;;;4991965;28;20038;-72
2022/11/09 07:45:28;;;;;;;11.90;2.88;;;12.20;99.90;;;;;;4975002;28;20046;-72
2022/11/09 07:48:02;;;;;;;12.52;2.60;;;12.20;99.90;;;;;;4974974;28;20109;-72
2022/11/09 07:50:30;;;;;;;12.48;2.88;;;12.40;99.90;;;;;;4975159;28;20058;-72
2022/11/09 07:52:56;;;;;;;9.82;2.10;;;12.30;99.90;;;;;;4974623;28;20126;-71
2022/11/09 07:55:23;;;;;;;8.35;2.00;;;12.20;99.90;;;;;;4974946;28;20046;-71
2022/11/09 07:57:54;;;;;;;11.35;2.20;;;12.30;99.90;;;;;;4974926;28;20038;-72
2022/11/09 08:00:20;;;;;;;8.85;2.75;;;12.30;99.90;;;;;;4992378;28;20050;-71
2022/11/09 08:02:48;;;;;;;7.13;2.47;;;12.40;99.90;;;;;;4974409;28;20045;-71
2022/11/09 08:05:13;;;;;;;12.85;2.30;;;12.70;99.90;;;;;;4974894;28;20038;-71
2022/11/09 08:07:39;;;;;;;6.68;2.10;;;12.60;99.90;;;;;;4992203;28;20042;-71
2022/11/09 08:10:05;;;;;;;8.68;2.42;;;12.80;99.90;;;;;;4992351;28;20046;-71
2022/11/09 08:12:30;;;;;;;12.15;2.50;;;12.80;99.90;;;;;;4974529;28;20050;-72
2022/11/09 08:14:56;;;;;;;7.95;2.47;;;12.80;99.90;;;;;;4992309;28;20039;-71
2022/11/09 08:17:21;;;;;;;11.15;2.33;;;12.70;99.90;;;;;;4990964;28;20050;-71
2022/11/09 08:19:47;;;;;;;8.57;2.63;;;12.60;99.90;;;;;;4974487;28;20054;-71
2022/11/09 08:22:12;;;;;;;11.32;2.83;;;12.80;99.90;;;;;;4991886;28;20466;-71
2022/11/09 08:24:38;;;;;;;9.25;2.90;;;12.80;99.90;;;;;;4974427;28;20526;-71
2022/11/09 08:27:03;;;;;;;12.50;2.58;;;12.60;99.90;;;;;;4974593;28;20377;-71
2022/11/09 08:29:29;;;;;;;11.52;2.70;;;12.60;99.90;;;;;;4974568;28;20046;-71
2022/11/09 08:31:54;;;;;;;14.38;3.08;;;12.60;99.90;;;;;;4991952;28;20047;-71
2022/11/09 08:34:20;;;;;;;10.48;3.05;;;12.70;99.90;;;;;;4974396;28;20045;-71
2022/11/09 08:36:46;;;;;;;9.68;2.72;;;12.60;99.90;;;;;;4991900;28;20408;-71
2022/11/09 08:39:11;;;;;;;9.10;2.80;;;12.70;99.90;;;;;;4992977;28;20042;-71
2022/11/09 08:41:37;;;;;;;8.98;2.50;;;12.60;99.90;;;;;;4995489;28;20042;-71
2022/11/09 08:44:02;;;;;;;8.20;2.55;;;12.80;99.90;;;;;;4995416;28;20129;-71
2022/11/09 08:46:28;;;;;;;11.13;2.83;;;12.80;99.90;;;;;;4978202;28;20452;-71
2022/11/09 08:48:53;;;;;;;12.35;2.42;;;12.60;99.90;;;;;;4995622;28;20038;-71
2022/11/09 08:51:21;;;;;;;8.00;2.55;;;12.80;99.90;;;;;;4994191;28;20042;-71
2022/11/09 08:53:47;;;;;;;8.27;2.70;;;12.80;99.90;;;;;;4977714;28;20050;-71
2022/11/09 08:56:17;;;;;;;16.17;3.28;;;12.80;99.90;;;;;;4977913;28;20038;-71
2022/11/09 08:58:43;;;;;;;12.57;2.50;;;12.90;99.90;;;;;;4995841;28;20057;-71
2022/11/09 09:01:08;;;;;;;8.07;2.65;;;12.70;99.90;;;;;;4977927;28;20045;-71
2022/11/09 09:03:34;;;;;;;12.07;3.10;;;12.70;99.90;;;;;;4977878;28;20038;-71
2022/11/09 09:06:04;;;;;;;10.77;2.95;;;12.90;99.90;;;;;;4995161;28;20117;-71
2022/11/09 09:08:30;;;;;;;7.50;2.70;;;12.90;99.90;;;;;;4977701;28;20534;-71
2022/11/09 09:10:56;;;;;;;8.30;2.92;;;13.00;99.90;;;;;;4977525;28;20077;-71
2022/11/09 09:13:22;;;;;;;12.70;2.90;;;12.90;99.90;;;;;;4994782;28;20065;-71
2022/11/09 09:15:48;;;;;;;14.32;3.88;;;12.90;99.90;;;;;;4993953;28;20050;-71
2022/11/09 09:18:14;;;;;;;9.07;2.72;;;12.90;99.90;;;;;;4995198;28;20416;-71
2022/11/09 09:20:39;;;;;;;12.70;2.30;;;12.80;99.90;;;;;;4994933;28;20046;-71
2022/11/09 09:23:05;;;;;;;10.38;3.38;;;12.90;99.90;;;;;;4977438;28;20045;-71
2022/11/09 09:25:31;;;;;;;12.32;3.63;;;12.90;99.90;;;;;;4995021;28;20034;-71
2022/11/09 09:27:56;;;;;;;8.30;2.75;;;12.90;99.90;;;;;;4994869;28;20517;-71
2022/11/09 09:30:22;;;;;;;12.82;3.38;;;13.10;99.90;;;;;;4994767;28;20042;-71
2022/11/09 09:32:48;;;;;;;12.30;3.53;;;12.90;99.90;;;;;;4976861;28;20050;-71
2022/11/09 09:35:13;;;;;;;15.48;3.13;;;13.00;99.90;;;;;;4994707;28;20053;-71
2022/11/09 09:37:39;;;;;;;7.72;3.42;;;13.10;99.90;;;;;;4977169;28;20046;-71
2022/11/09 09:40:05;;;;;;;14.00;4.18;;;13.10;99.90;;;;;;4977072;28;20058;-71
2022/11/09 09:42:36;;;;;;;10.88;4.00;;;13.00;99.90;;;;;;4994121;28;20034;-72
2022/11/09 09:45:25;;;;;;;9.10;3.25;;;13.00;99.90;;;;;;4976956;28;20050;-72
2022/11/09 09:48:19;;;;;;;8.77;3.13;;;13.10;99.90;;;;;;4994477;28;20069;-73
2022/11/09 09:50:50;;;;;;;;;;;13.10;99.90;;;;;;4982332;28;20139;-72
2022/11/09 09:53:36;;;;;;;13.13;3.08;;;13.10;99.90;;;;;;4956960;28;19918;-72
2022/11/09 09:56:18;;;;;;;12.02;3.95;;;13.20;99.90;;;;;;4956800;28;20046;-72
2022/11/09 09:59:05;;;;;;;8.32;3.17;;;13.20;99.90;;;;;;4973771;28;20066;-72
2022/11/09 10:01:39;;;;;;;9.52;2.97;;;13.40;99.90;;;;;;4971708;28;20039;-72
2022/11/09 10:04:21;;;;;;;12.57;3.65;;;13.40;99.90;;;;;;4956553;28;20065;-72
2022/11/09 10:07:22;;;;;;;13.27;4.30;;;13.30;99.90;;;;;;4973835;28;20043;-72
2022/11/09 10:10:05;;;;;;;16.42;4.20;;;13.30;99.90;;;;;;4915343;28;20055;-72
2022/11/09 10:13:00;;;;;;;12.05;3.85;;;13.50;99.90;;;;;;4974271;28;20386;-72
2022/11/09 10:15:32;;;;;;;8.20;3.20;;;13.40;99.90;;;;;;4946825;28;20051;-72
2022/11/09 10:18:20;;;;;;;10.13;3.42;;;13.50;99.90;;;;;;4974536;28;20046;-73
2022/11/09 10:21:02;;;;;;;13.45;3.63;;;13.40;99.90;;;;;;4974376;28;20126;-72
2022/11/09 10:24:08;;;;;;;12.10;3.80;;;13.40;99.90;;;;;;4989309;28;20138;-72
2022/11/09 10:26:48;;;;;;;11.65;3.67;;;13.50;99.90;;;;;;4974329;28;20493;-72
2022/11/09 10:29:23;;;;;;;12.98;3.55;;;13.60;99.90;;;;;;4957233;28;20545;-72
2022/11/09 10:31:56;;;;;;;10.18;3.92;;;13.50;99.90;;;;;;4957127;28;20114;-72
2022/11/09 10:34:31;;;;;;;13.35;3.28;;;13.40;99.90;;;;;;4974233;28;20046;-72
2022/11/09 10:37:14;;;;;;;12.07;3.97;;;13.40;99.90;;;;;;4974268;28;20497;-72
2022/11/09 10:40:03;;;;;;;11.10;4.00;;;13.50;99.90;;;;;;4989085;28;20066;-72
2022/11/09 10:42:29;;;;;;;9.23;3.75;;;13.40;99.90;;;;;;4956256;28;20421;-72
2022/11/09 10:44:54;;;;;;;9.75;3.42;;;13.50;99.90;;;;;;4972870;28;20035;-72
2022/11/09 10:47:21;;;;;;;10.02;3.58;;;13.40;99.90;;;;;;4968178;28;20547;-72
2022/11/09 10:50:06;;;;;;;13.00;4.00;;;13.50;99.90;;;;;;4986286;28;20490;-73
2022/11/09 10:52:38;;;;;;;13.00;3.45;;;13.60;99.90;;;;;;4983465;28;20042;-73
2022/11/09 10:55:23;;;;;;;10.23;3.30;;;13.40;99.90;;;;;;4975878;28;20046;-72
2022/11/09 10:57:58;;;;;;;11.80;3.70;;;13.50;99.90;;;;;;4993251;28;20611;-73
2022/11/09 11:00:24;;;;;;;16.40;3.90;;;13.40;99.90;;;;;;4975615;28;20043;-73
2022/11/09 11:02:50;;;;;;;9.40;3.55;;;13.40;99.90;;;;;;4975177;28;20042;-72
2022/11/09 11:05:16;;;;;;;13.75;4.00;;;13.60;99.90;;;;;;4967386;28;20114;-72
2022/11/09 11:07:42;;;;;;;11.32;3.42;;;13.60;99.90;;;;;;4969073;28;20176;-72
2022/11/09 11:10:14;;;;;;;15.88;4.55;;;13.50;99.90;;;;;;4973627;28;20042;-71
2022/11/09 11:12:40;;;;;;;9.98;4.40;;;13.70;99.90;;;;;;4972920;28;20125;-71
2022/11/09 11:15:36;;;;;;;8.13;3.53;;;13.70;99.90;;;;;;4973386;28;20174;-76
2022/11/09 11:18:17;;;;;;;13.48;4.45;;;13.70;99.90;;;;;;4947809;28;20133;-75
2022/11/09 11:20:42;;;;;;;11.50;3.70;;;13.70;99.90;;;;;;4994805;28;20409;-75
2022/11/09 11:23:08;;;;;;;11.70;3.95;;;13.80;99.90;;;;;;4967015;28;20039;-76
2022/11/09 11:25:53;;;;;;;12.93;4.05;;;13.80;99.90;;;;;;4975508;28;20504;-75
2022/11/09 11:28:41;;;;;;;10.88;3.53;;;13.80;99.90;;;;;;4975416;28;20045;-75
2022/11/09 11:31:16;;;;;;;11.15;3.97;;;13.70;99.90;;;;;;4992798;28;20045;-75
2022/11/09 11:33:42;;;;;;;10.82;3.63;;;13.90;99.90;;;;;;4975268;28;20050;-75
2022/11/09 11:36:30;;;;;;;18.05;3.78;;;13.80;99.90;;;;;;4975118;28;20042;-75
2022/11/09 11:39:19;;;;;;;8.68;3.42;;;13.80;99.90;;;;;;4992673;28;20049;-75
2022/11/09 11:42:22;;;;;;;11.85;4.00;;;13.70;99.90;;;;;;4974790;28;20053;-75
2022/11/09 11:45:11;;;;;;;13.03;4.10;;;13.80;99.90;;;;;;4975340;28;20096;-75
2022/11/09 11:47:49;;;;;;;10.82;3.90;;;13.70;99.90;;;;;;4958933;28;20277;-75
2022/11/09 11:50:18;;;;;;;10.35;4.20;;;13.80;99.90;;;;;;4975101;28;20125;-75
2022/11/09 11:53:05;;;;;;;10.80;3.78;;;13.80;99.90;;;;;;4974774;28;20042;-75
2022/11/09 11:55:49;;;;;;;11.68;3.70;;;13.90;99.90;;;;;;4992604;28;20042;-75
2022/11/09 11:58:28;;;;;;;7.65;3.15;;;13.80;99.90;;;;;;4975464;28;20050;-75
2022/11/09 12:00:59;;;;;;;10.18;4.53;;;13.80;99.90;;;;;;4992247;28;20101;-75
2022/11/09 12:03:57;;;;;;;6.63;3.20;;;13.90;99.90;;;;;;4974965;28;20046;-75
2022/11/09 12:06:36;;;;;;;13.70;3.70;;;14.00;99.90;;;;;;4975044;28;20038;-75
2022/11/09 12:09:32;;;;;;;9.82;4.38;;;13.80;99.90;;;;;;4992302;28;20049;-76
2022/11/09 12:12:24;;;;;;;14.55;4.38;;;13.90;99.90;;;;;;5007183;28;20053;-75
2022/11/09 12:15:20;;;;;;;11.75;3.75;;;13.80;99.90;;;;;;4995875;28;20117;-75
2022/11/09 12:18:02;;;;;;;13.38;4.45;;;13.90;99.90;;;;;;4978689;28;20042;-75
2022/11/09 12:20:35;;;;;;;7.85;3.60;;;13.70;99.90;;;;;;4978665;28;20042;-75
2022/11/09 12:23:25;;;;;;;15.85;3.40;;;13.70;99.90;;;;;;4978527;28;20035;-75
2022/11/09 12:26:33;;;;;;;9.77;3.28;;;13.60;99.90;;;;;;4978635;28;20042;-75
2022/11/09 12:29:13;;;;;;;12.68;4.18;;;13.60;99.90;;;;;;4978562;28;20089;-75
2022/11/09 12:32:05;;;;;;;12.82;2.88;;;13.50;99.90;;;;;;4978624;28;20105;-75
2022/11/09 12:34:55;;;;;;;10.20;2.80;;;13.60;99.90;;;;;;4995627;28;20389;-75
2022/11/09 12:38:00;;;;;;;11.00;3.28;;;13.50;99.90;;;;;;4978471;28;20128;-75
2022/11/09 12:40:33;;;;;;;14.30;3.30;;;13.60;99.90;;;;;;4978278;28;20042;-75
2022/11/09 12:43:20;;;;;;;;;;;13.50;99.90;;;;;;4978497;28;20042;-75
2022/11/09 12:45:48;;;;;;;7.90;2.38;;;13.40;99.90;;;;;;4978549;28;20279;-75
2022/11/09 12:48:23;;;;;;;13.77;3.55;;;13.50;99.90;;;;;;4978145;28;20580;-75
2022/11/09 12:50:50;;;;;;;12.57;3.63;;;13.70;99.90;;;;;;4978319;28;20042;-75
2022/11/09 12:53:16;;;;;;;9.80;2.80;;;13.60;99.90;;;;;;4978223;28;20038;-75
2022/11/09 12:55:57;;;;;;;11.05;3.40;;;13.80;99.90;;;;;;4995499;28;20445;-75
2022/11/09 12:58:28;;;;;;;10.90;2.60;;;13.80;99.90;;;;;;4978312;28;20060;-75